Time;durP1;ratioP1;P1;durP2;ratioP2;P2;SDS_P1;SDS_P2;PMS_P1;PMS_P2;Temp;Humidity;BMP_temperature;BMP_pressure;BME280_temperature;BME280_humidity;BME280_pressure;Samples;Min_cycle;Max_cycle;Signal;HPM_P1;HPM_P2
2023/02/13 00:00:26;;;;;;;11.55;3.28;;;;;;;;;;21096598;28;20107;-69
2023/02/13 00:10:29;;;;;;;7.50;3.13;;;;;;;;;;21094122;28;20052;-72
2023/02/13 00:20:31;;;;;;;6.35;2.85;;;;;;;;;;21091882;28;20055;-68
2023/02/13 00:30:42;;;;;;;15.07;4.75;;;;;;;;;;21091335;28;20044;-71
2023/02/13 00:40:51;;;;;;;16.08;3.78;;;;;;;;;;21088098;28;20048;-71
2023/02/13 00:50:56;;;;;;;9.93;3.70;;;;;;;;;;21084474;28;20059;-70
2023/02/13 01:01:00;;;;;;;8.23;4.28;;;;;;;;;;21085500;28;20051;-71
2023/02/13 01:11:04;;;;;;;14.57;4.30;;;;;;;;;;21085221;28;20055;-62
2023/02/13 01:21:08;;;;;;;11.18;4.07;;;;;;;;;;21083146;28;20059;-71
2023/02/13 01:31:11;;;;;;;14.60;3.85;;;;;;;;;;21083418;28;20117;-68
2023/02/13 01:41:14;;;;;;;9.77;3.17;;;;;;;;;;21043118;28;1177121;-70
2023/02/13 01:51:29;;;;;;;16.75;4.88;;;;;;;;;;21086041;28;20048;-70
2023/02/13 02:01:31;;;;;;;11.50;4.20;;;;;;;;;;21084405;28;20399;-65
2023/02/13 02:11:42;;;;;;;12.63;4.10;;;;;;;;;;21084817;28;20044;-61
2023/02/13 02:21:52;;;;;;;10.32;3.60;;;;;;;;;;21082924;28;20097;-62
2023/02/13 02:32:14;;;;;;;9.65;3.63;;;;;;;;;;21065467;28;20048;-69
2023/02/13 02:42:24;;;;;;;5.75;3.47;;;;;;;;;;21131274;28;20075;-70
2023/02/13 02:52:45;;;;;;;13.63;3.67;;;;;;;;;;21166253;28;20039;-69
2023/02/13 03:13:20;;;;;;;7.43;3.67;;;;;;;;;;21164846;28;20088;-72
2023/02/13 03:23:23;;;;;;;6.97;3.53;;;;;;;;;;21164790;28;20058;-73
2023/02/13 03:33:37;;;;;;;9.60;3.63;;;;;;;;;;21163684;28;20482;-71
2023/02/13 03:43:44;;;;;;;15.27;4.00;;;;;;;;;;21102800;28;20095;-71
2023/02/13 03:53:49;;;;;;;9.25;2.88;;;;;;;;;;21079008;28;20408;-66
2023/02/13 04:03:54;;;;;;;8.07;3.03;;;;;;;;;;21077321;28;20083;-72
2023/02/13 04:14:00;;;;;;;5.53;3.22;;;;;;;;;;21078165;28;20486;-72
2023/02/13 04:24:03;;;;;;;6.32;2.65;;;;;;;;;;21085038;28;20086;-71
2023/02/13 04:34:04;;;;;;;8.95;2.90;;;;;;;;;;21090940;28;20139;-72
2023/02/13 04:44:06;;;;;;;8.50;3.08;;;;;;;;;;21090384;28;20081;-67
2023/02/13 04:54:09;;;;;;;10.38;2.95;;;;;;;;;;21090876;28;20050;-70
2023/02/13 05:04:15;;;;;;;12.05;3.53;;;;;;;;;;21090301;28;20048;-66
2023/02/13 05:14:16;;;;;;;9.43;3.47;;;;;;;;;;21089417;28;20055;-70
2023/02/13 05:24:18;;;;;;;13.32;3.53;;;;;;;;;;21089330;28;20050;-73
2023/02/13 05:34:21;;;;;;;9.10;3.42;;;;;;;;;;21086123;28;20040;-65
2023/02/13 05:44:23;;;;;;;10.25;3.33;;;;;;;;;;21085766;28;20143;-62
2023/02/13 05:54:25;;;;;;;10.65;3.83;;;;;;;;;;21085570;28;20478;-71
2023/02/13 06:04:27;;;;;;;9.80;4.57;;;;;;;;;;21066052;28;20500;-61
2023/02/13 06:14:29;;;;;;;12.77;3.95;;;;;;;;;;21083145;28;20048;-68
2023/02/13 06:24:31;;;;;;;8.18;3.92;;;;;;;;;;21082250;28;20044;-61
2023/02/13 06:34:33;;;;;;;10.70;5.20;;;;;;;;;;21084556;28;20460;-66
2023/02/13 06:44:35;;;;;;;13.15;3.38;;;;;;;;;;21081743;28;20088;-73
2023/02/13 06:54:37;;;;;;;11.88;3.63;;;;;;;;;;21084338;28;20052;-72
2023/02/13 07:04:39;;;;;;;12.00;3.78;;;;;;;;;;21081308;28;20051;-68
2023/02/13 07:14:41;;;;;;;13.20;3.83;;;;;;;;;;21080541;28;20093;-71
2023/02/13 07:24:43;;;;;;;8.30;3.60;;;;;;;;;;21078580;28;20052;-70
2023/02/13 07:34:48;;;;;;;8.40;4.40;;;;;;;;;;21079327;28;20159;-68
2023/02/13 07:44:50;;;;;;;11.40;5.05;;;;;;;;;;21077937;28;20060;-71
2023/02/13 07:54:52;;;;;;;19.27;5.18;;;;;;;;;;21081327;28;20059;-70
2023/02/13 08:04:54;;;;;;;13.52;4.63;;;;;;;;;;21093658;28;20052;-69
2023/02/13 08:14:56;;;;;;;15.77;5.18;;;;;;;;;;21093010;28;20135;-67
2023/02/13 08:24:58;;;;;;;12.73;5.82;;;;;;;;;;21092081;28;20084;-67
2023/02/13 08:35:00;;;;;;;17.10;4.88;;;;;;;;;;21092264;28;20048;-64
2023/02/13 08:45:02;;;;;;;15.75;4.07;;;;;;;;;;21090478;28;20064;-64
2023/02/13 08:55:04;;;;;;;16.73;4.97;;;;;;;;;;21089636;28;20044;-66
2023/02/13 09:05:06;;;;;;;14.70;3.90;;;;;;;;;;21090182;28;20134;-66
2023/02/13 09:15:08;;;;;;;11.75;3.22;;;;;;;;;;21089972;28;20478;-66
2023/02/13 09:25:10;;;;;;;10.93;3.92;;;;;;;;;;21087498;28;20048;-63
2023/02/13 09:35:13;;;;;;;7.57;3.90;;;;;;;;;;21088489;28;20052;-72
2023/02/13 09:45:16;;;;;;;9.25;4.00;;;;;;;;;;21085991;28;20139;-72
2023/02/13 09:55:20;;;;;;;17.55;5.00;;;;;;;;;;21085455;28;20047;-72
2023/02/13 10:05:25;;;;;;;12.18;4.18;;;;;;;;;;21084432;28;20083;-68
2023/02/13 10:15:27;;;;;;;9.70;3.65;;;;;;;;;;21083723;28;20047;-63
2023/02/13 10:25:35;;;;;;;11.63;3.92;;;;;;;;;;21083031;28;20052;-62
2023/02/13 10:35:38;;;;;;;5.60;2.08;;;;;;;;;;21081366;28;20052;-66
2023/02/13 10:45:49;;;;;;;14.80;3.28;;;;;;;;;;21081089;28;20506;-62
2023/02/13 10:55:56;;;;;;;13.38;4.25;;;;;;;;;;21080284;28;20055;-63
2023/02/13 11:06:00;;;;;;;13.20;3.90;;;;;;;;;;21079351;28;20455;-64
2023/02/13 11:16:02;;;;;;;14.65;4.20;;;;;;;;;;21080646;28;20072;-65
2023/02/13 11:26:21;;;;;;;10.20;2.92;;;;;;;;;;21066986;28;20409;-64
2023/02/13 11:36:30;;;;;;;8.77;4.13;;;;;;;;;;21024881;28;20052;-66
2023/02/13 11:46:48;;;;;;;7.57;3.27;;;;;;;;;;21093587;28;20398;-62
2023/02/13 11:56:52;;;;;;;5.90;2.65;;;;;;;;;;21074085;28;20139;-64
2023/02/13 12:06:59;;;;;;;13.13;2.95;;;;;;;;;;21031762;28;20100;-62
2023/02/13 12:17:04;;;;;;;8.50;3.30;;;;;;;;;;21085710;28;20052;-69
2023/02/13 12:27:06;;;;;;;7.45;2.97;;;;;;;;;;21058940;28;20048;-73
2023/02/13 12:37:17;;;;;;;10.02;3.40;;;;;;;;;;21065811;28;20131;-71
2023/02/13 12:47:22;;;;;;;11.68;3.38;;;;;;;;;;21085383;28;20051;-66
2023/02/13 12:57:33;;;;;;;9.27;2.55;;;;;;;;;;21043590;28;20203;-66
2023/02/13 13:07:50;;;;;;;10.18;2.47;;;;;;;;;;21038073;28;20041;-65
2023/02/13 13:18:15;;;;;;;10.65;3.05;;;;;;;;;;21050387;28;20433;-68
2023/02/13 13:28:20;;;;;;;12.70;2.95;;;;;;;;;;21087270;28;20044;-64
2023/02/13 13:38:40;;;;;;;5.72;2.40;;;;;;;;;;21086285;28;20056;-63
2023/02/13 13:49:05;;;;;;;7.25;2.67;;;;;;;;;;21085373;28;20051;-64
2023/02/13 13:59:16;;;;;;;4.63;2.50;;;;;;;;;;20662428;28;20046;-67
2023/02/13 14:09:26;;;;;;;8.13;2.38;;;;;;;;;;20664433;28;20481;-64
2023/02/13 14:19:36;;;;;;;3.55;2.15;;;;;;;;;;20663194;28;20057;-63
2023/02/13 14:29:38;;;;;;;10.70;2.87;;;;;;;;;;20764008;28;20071;-64
2023/02/13 14:39:41;;;;;;;6.55;2.17;;;;;;;;;;21083268;28;20106;-63
2023/02/13 14:49:43;;;;;;;3.45;1.63;;;;;;;;;;21082141;28;20577;-64
2023/02/13 14:59:50;;;;;;;9.80;2.35;;;;;;;;;;21081645;28;20059;-63
2023/02/13 15:09:59;;;;;;;11.38;3.38;;;;;;;;;;21080336;28;20071;-63
2023/02/13 15:20:08;;;;;;;3.97;2.30;;;;;;;;;;21080235;28;20608;-63
2023/02/13 15:30:19;;;;;;;5.83;2.10;;;;;;;;;;21078658;28;20117;-62
2023/02/13 15:40:23;;;;;;;9.38;2.53;;;;;;;;;;21078272;28;20049;-63
2023/02/13 15:50:33;;;;;;;8.60;2.17;;;;;;;;;;21077712;28;20147;-62
2023/02/13 16:00:35;;;;;;;;;;;;;;;;;;21079128;28;20052;-64
2023/02/13 16:10:37;;;;;;;5.70;2.15;;;;;;;;;;21078559;28;20388;-63
2023/02/13 16:20:40;;;;;;;8.35;2.35;;;;;;;;;;21088092;28;20048;-64
2023/02/13 16:30:45;;;;;;;4.75;1.80;;;;;;;;;;21092443;28;20097;-65
2023/02/13 16:40:47;;;;;;;6.60;2.25;;;;;;;;;;21091586;28;20062;-63
2023/02/13 16:50:54;;;;;;;8.45;2.33;;;;;;;;;;21072115;28;20083;-63
2023/02/13 17:00:56;;;;;;;8.13;3.05;;;;;;;;;;21091111;28;20127;-71
2023/02/13 17:11:05;;;;;;;7.90;3.88;;;;;;;;;;21090626;28;20051;-72
2023/02/13 17:21:08;;;;;;;6.90;2.30;;;;;;;;;;21089927;28;20174;-70
2023/02/13 17:31:10;;;;;;;6.90;2.25;;;;;;;;;;21092590;28;20048;-69
2023/02/13 17:41:14;;;;;;;8.40;3.00;;;;;;;;;;21087012;28;20387;-69
2023/02/13 17:51:16;;;;;;;9.25;2.25;;;;;;;;;;21086850;28;20126;-67
2023/02/13 18:01:18;;;;;;;6.25;2.20;;;;;;;;;;21086009;28;20044;-70
2023/02/13 18:11:19;;;;;;;6.07;2.25;;;;;;;;;;21084706;28;20055;-70
2023/02/13 18:21:22;;;;;;;12.05;2.70;;;;;;;;;;21084447;28;20048;-69
2023/02/13 18:31:23;;;;;;;7.30;2.75;;;;;;;;;;21065645;28;20448;-68
2023/02/13 18:41:25;;;;;;;9.70;3.63;;;;;;;;;;21081745;28;20510;-67
2023/02/13 18:51:27;;;;;;;9.57;3.92;;;;;;;;;;21081003;28;20055;-63
2023/02/13 19:01:29;;;;;;;9.10;3.60;;;;;;;;;;21081668;28;20051;-63
2023/02/13 19:11:33;;;;;;;9.35;3.60;;;;;;;;;;21081146;28;20540;-63
2023/02/13 19:21:35;;;;;;;9.75;3.72;;;;;;;;;;21078914;28;20039;-63
2023/02/13 19:31:37;;;;;;;6.95;2.95;;;;;;;;;;21079791;28;20528;-62
2023/02/13 19:41:42;;;;;;;7.13;3.60;;;;;;;;;;21059762;28;20052;-63
2023/02/13 19:51:46;;;;;;;5.93;3.47;;;;;;;;;;21082997;28;20055;-62
2023/02/13 20:01:47;;;;;;;6.45;3.58;;;;;;;;;;21095798;28;20080;-63
2023/02/13 20:11:49;;;;;;;11.77;4.43;;;;;;;;;;21093611;28;20051;-63
2023/02/13 20:21:51;;;;;;;7.50;3.80;;;;;;;;;;21093855;28;20055;-63
2023/02/13 20:31:53;;;;;;;6.75;3.85;;;;;;;;;;21090857;28;20501;-63
2023/02/13 20:41:55;;;;;;;6.32;3.88;;;;;;;;;;21091298;28;20099;-64
2023/02/13 20:51:56;;;;;;;9.07;3.92;;;;;;;;;;21091390;28;20068;-63
2023/02/13 21:01:59;;;;;;;8.10;3.70;;;;;;;;;;21088877;28;20102;-63
2023/02/13 21:12:00;;;;;;;10.23;4.18;;;;;;;;;;21090767;28;20088;-64
2023/02/13 21:22:12;;;;;;;6.85;4.25;;;;;;;;;;21089879;28;20501;-63
2023/02/13 21:32:13;;;;;;;7.93;4.03;;;;;;;;;;21086618;28;20048;-63
2023/02/13 21:42:15;;;;;;;9.32;4.80;;;;;;;;;;21042004;28;20106;-60
2023/02/13 21:52:17;;;;;;;7.95;4.30;;;;;;;;;;21003019;28;20067;-63
2023/02/13 22:02:19;;;;;;;8.18;3.88;;;;;;;;;;21001314;28;20067;-64
2023/02/13 22:12:21;;;;;;;5.32;3.85;;;;;;;;;;21000210;28;20106;-62
2023/02/13 22:22:23;;;;;;;11.27;4.63;;;;;;;;;;21000093;28;20049;-63
2023/02/13 22:32:24;;;;;;;7.13;4.15;;;;;;;;;;20999024;28;20076;-64
2023/02/13 22:42:26;;;;;;;7.55;3.75;;;;;;;;;;21043827;28;20126;-62
2023/02/13 22:52:28;;;;;;;8.10;4.28;;;;;;;;;;21082394;28;20048;-62
2023/02/13 23:02:29;;;;;;;7.18;4.30;;;;;;;;;;21081298;28;20524;-62
2023/02/13 23:12:39;;;;;;;6.90;4.30;;;;;;;;;;21081624;28;20387;-63
2023/02/13 23:22:40;;;;;;;8.80;4.40;;;;;;;;;;21080709;28;20478;-61
2023/02/13 23:32:42;;;;;;;8.68;4.15;;;;;;;;;;21079485;28;20125;-63
2023/02/13 23:42:44;;;;;;;7.13;3.70;;;;;;;;;;21077943;28;20135;-64
2023/02/13 23:52:45;;;;;;;8.38;4.28;;;;;;;;;;21078783;28;20470;-63
